createdAt,value
2023-03-04T00:02:24.018Z,10.35
2023-03-04T00:04:51.337Z,10.85
2023-03-04T00:07:19.009Z,11.25
2023-03-04T00:09:46.883Z,12.20
2023-03-04T00:12:14.148Z,11.07
2023-03-04T00:14:41.886Z,11.13
2023-03-04T00:17:09.045Z,11.57
2023-03-04T00:19:36.301Z,11.65
2023-03-04T00:22:04.530Z,11.48
2023-03-04T00:24:32.081Z,11.73
2023-03-04T00:26:59.248Z,11.68
2023-03-04T00:29:26.543Z,11.20
2023-03-04T00:31:53.744Z,12.10
2023-03-04T00:34:21.140Z,11.57
2023-03-04T00:36:48.419Z,11.73
2023-03-04T00:39:15.627Z,12.07
2023-03-04T00:41:42.778Z,11.50
2023-03-04T00:44:09.963Z,11.82
2023-03-04T00:46:37.119Z,12.25
2023-03-04T00:49:04.391Z,12.32
2023-03-04T00:51:31.637Z,12.00
2023-03-04T00:54:00.812Z,11.00
2023-03-04T00:56:28.228Z,11.70
2023-03-04T00:58:55.485Z,11.40
2023-03-04T01:01:22.704Z,11.75
2023-03-04T01:03:50.084Z,11.80
2023-03-04T01:06:17.322Z,11.60
2023-03-04T01:08:44.497Z,10.32
2023-03-04T01:11:11.699Z,11.73
2023-03-04T01:13:39.743Z,11.02
2023-03-04T01:16:07.455Z,12.35
2023-03-04T01:18:34.775Z,11.05
2023-03-04T01:21:01.922Z,12.15
2023-03-04T01:23:29.166Z,12.18
2023-03-04T01:25:56.404Z,13.70
2023-03-04T01:28:23.668Z,15.40
2023-03-04T01:30:50.945Z,14.40
2023-03-04T01:33:18.078Z,13.25
2023-03-04T01:35:45.390Z,12.15
2023-03-04T01:38:12.965Z,12.77
2023-03-04T01:40:40.371Z,12.25
2023-03-04T01:43:07.514Z,11.90
2023-03-04T01:45:35.871Z,12.15
2023-03-04T01:48:03.089Z,12.13
2023-03-04T01:50:35.123Z,12.30
2023-03-04T01:53:02.778Z,11.82
2023-03-04T01:55:30.390Z,11.98
2023-03-04T01:57:57.837Z,11.63
2023-03-04T02:00:32.386Z,12.48
2023-03-04T02:03:05.100Z,11.40
2023-03-04T02:05:32.537Z,13.23
2023-03-04T02:08:01.694Z,11.95
2023-03-04T02:10:29.231Z,12.20
2023-03-04T02:12:57.203Z,12.10
2023-03-04T02:15:24.443Z,12.25
2023-03-04T02:17:51.714Z,13.50
2023-03-04T02:20:24.122Z,13.20
2023-03-04T02:23:14.579Z,14.23
2023-03-04T02:25:46.012Z,13.52
2023-03-04T02:28:13.146Z,13.68
2023-03-04T02:30:40.380Z,13.75
2023-03-04T02:33:07.937Z,13.10
2023-03-04T02:35:35.130Z,12.88
2023-03-04T02:38:02.265Z,13.75
2023-03-04T02:40:30.616Z,12.98
2023-03-04T02:43:00.248Z,13.98
2023-03-04T02:45:39.893Z,13.48
2023-03-04T02:48:07.419Z,14.32
2023-03-04T02:50:36.314Z,13.27
2023-03-04T02:53:04.023Z,11.57
2023-03-04T02:55:32.296Z,13.27
2023-03-04T02:57:59.546Z,14.48
2023-03-04T03:00:27.225Z,13.07
2023-03-04T03:02:54.494Z,13.13
2023-03-04T03:05:21.743Z,13.75
2023-03-04T03:07:48.915Z,13.35
2023-03-04T03:10:16.256Z,13.75
2023-03-04T03:12:43.513Z,13.40
2023-03-04T03:15:10.906Z,13.35
2023-03-04T03:17:41.063Z,14.00
2023-03-04T03:20:09.055Z,14.68
2023-03-04T03:22:36.207Z,15.00
2023-03-04T03:25:03.505Z,14.80
2023-03-04T03:27:30.696Z,14.48
2023-03-04T03:29:57.853Z,13.75
2023-03-04T03:32:25.062Z,14.55
2023-03-04T03:34:52.262Z,14.63
2023-03-04T03:37:19.435Z,13.57
2023-03-04T03:39:46.540Z,14.93
2023-03-04T03:42:16.529Z,15.13
2023-03-04T03:44:43.740Z,15.05
2023-03-04T03:47:10.895Z,14.13
2023-03-04T03:49:38.034Z,13.93
2023-03-04T03:52:05.507Z,14.15
2023-03-04T03:54:32.722Z,14.35
2023-03-04T03:56:59.862Z,14.73
2023-03-04T03:59:27.052Z,13.23
2023-03-04T04:01:54.377Z,14.85
2023-03-04T04:04:21.677Z,14.68
2023-03-04T04:06:48.871Z,13.35
2023-03-04T04:09:16.033Z,13.68
2023-03-04T04:11:43.176Z,13.95
2023-03-04T04:14:12.551Z,13.48
2023-03-04T04:16:39.893Z,14.98
2023-03-04T04:19:07.214Z,13.32
2023-03-04T04:21:34.365Z,14.25
2023-03-04T04:24:01.481Z,13.82
2023-03-04T04:26:28.662Z,13.65
2023-03-04T04:28:55.838Z,14.25
2023-03-04T04:31:23.070Z,12.93
2023-03-04T04:33:50.485Z,13.45
2023-03-04T04:36:17.761Z,12.88
2023-03-04T04:38:45.813Z,13.18
2023-03-04T04:41:19.550Z,12.57
2023-03-04T04:43:46.720Z,13.20
2023-03-04T04:46:14.023Z,13.45
2023-03-04T04:48:41.147Z,12.52
2023-03-04T04:51:08.632Z,12.70
2023-03-04T04:53:36.165Z,13.05
2023-03-04T04:56:09.549Z,13.50
2023-03-04T05:01:04.894Z,12.00
2023-03-04T05:03:32.715Z,11.60
2023-03-04T05:06:00.146Z,12.27
2023-03-04T05:08:27.356Z,13.40
2023-03-04T05:10:54.819Z,12.13
2023-03-04T05:13:21.939Z,11.38
2023-03-04T05:15:49.147Z,12.57
2023-03-04T05:18:16.375Z,11.57
2023-03-04T05:20:43.663Z,13.32
2023-03-04T05:23:10.836Z,11.35
2023-03-04T05:25:38.350Z,11.88
2023-03-04T05:28:07.271Z,12.05
2023-03-04T05:30:34.496Z,10.95
2023-03-04T05:33:01.718Z,11.10
2023-03-04T05:35:29.550Z,10.50
2023-03-04T05:37:56.703Z,11.32
2023-03-04T05:40:25.780Z,34.85
2023-03-04T05:42:52.940Z,10.95
2023-03-04T05:45:20.156Z,10.63
2023-03-04T05:47:47.347Z,10.07
2023-03-04T05:50:14.617Z,10.07
2023-03-04T05:52:42.590Z,9.75
2023-03-04T05:55:09.961Z,10.45
2023-03-04T05:57:37.127Z,10.27
2023-03-04T06:00:05.771Z,9.77
2023-03-04T06:02:32.977Z,10.00
2023-03-04T06:05:00.217Z,8.80
2023-03-04T06:07:27.452Z,11.13
2023-03-04T06:09:54.710Z,9.63
2023-03-04T06:12:22.000Z,9.65
2023-03-04T06:14:49.229Z,9.70
2023-03-04T06:17:16.703Z,9.13
2023-03-04T06:19:43.972Z,8.85
2023-03-04T06:22:11.426Z,9.38
2023-03-04T06:24:38.598Z,9.32
2023-03-04T06:27:05.801Z,9.25
2023-03-04T06:29:33.009Z,9.05
2023-03-04T06:32:00.353Z,9.43
2023-03-04T06:34:28.399Z,9.15
2023-03-04T06:36:55.562Z,9.55
2023-03-04T06:39:22.824Z,9.30
2023-03-04T06:41:50.058Z,8.75
2023-03-04T06:44:17.435Z,10.23
2023-03-04T06:46:44.700Z,8.90
2023-03-04T06:49:11.964Z,9.05
2023-03-04T06:51:39.512Z,9.07
2023-03-04T06:54:06.675Z,8.52
2023-03-04T06:56:33.835Z,8.80
2023-03-04T06:59:01.029Z,9.20
2023-03-04T07:01:29.300Z,8.85
2023-03-04T07:03:57.212Z,8.45
2023-03-04T07:06:27.168Z,8.75
2023-03-04T07:08:54.369Z,11.02
2023-03-04T07:11:22.247Z,9.45
2023-03-04T07:13:49.788Z,8.60
2023-03-04T07:16:18.409Z,7.63
2023-03-04T07:18:46.154Z,6.95
2023-03-04T07:21:14.328Z,8.05
2023-03-04T07:23:41.861Z,7.50
2023-03-04T07:26:09.589Z,7.32
2023-03-04T07:28:37.049Z,7.65
2023-03-04T07:31:24.472Z,8.30
2023-03-04T07:33:52.397Z,6.80
2023-03-04T07:36:20.165Z,7.13
2023-03-04T07:38:48.623Z,6.50
2023-03-04T07:41:16.229Z,7.22
2023-03-04T07:43:43.930Z,6.53
2023-03-04T07:46:11.664Z,5.80
2023-03-04T07:48:39.263Z,5.53
2023-03-04T07:51:11.197Z,5.90
2023-03-04T07:53:39.333Z,5.97
2023-03-04T07:56:07.512Z,5.05
2023-03-04T07:58:34.906Z,5.43
2023-03-04T08:01:02.036Z,5.32
2023-03-04T08:03:29.815Z,5.05
2023-03-04T08:05:57.120Z,5.28
2023-03-04T08:08:24.320Z,5.07
2023-03-04T08:10:51.465Z,5.97
2023-03-04T08:13:18.652Z,4.93
2023-03-04T08:15:45.877Z,5.05
2023-03-04T08:18:13.202Z,4.80
2023-03-04T08:20:43.099Z,4.47
2023-03-04T08:23:13.240Z,4.53
2023-03-04T08:25:40.964Z,4.15
2023-03-04T08:28:08.441Z,5.00
2023-03-04T08:30:35.858Z,4.43
2023-03-04T08:33:04.097Z,4.65
2023-03-04T08:35:31.820Z,3.90
2023-03-04T08:38:01.355Z,4.68
2023-03-04T08:40:31.041Z,5.30
2023-03-04T08:42:58.339Z,3.38
2023-03-04T08:45:25.841Z,4.45
2023-03-04T08:47:53.014Z,3.72
2023-03-04T08:50:22.297Z,3.90
2023-03-04T08:52:49.774Z,3.22
2023-03-04T08:55:17.027Z,3.45
2023-03-04T08:57:44.209Z,3.53
2023-03-04T09:00:12.325Z,2.72
2023-03-04T09:02:39.581Z,3.28
2023-03-04T09:05:07.303Z,3.20
2023-03-04T09:07:34.448Z,2.92
2023-03-04T09:10:01.640Z,3.72
2023-03-04T09:12:29.026Z,2.67
2023-03-04T09:15:10.181Z,3.20
2023-03-04T09:17:37.763Z,2.95
2023-03-04T09:20:05.217Z,3.35
2023-03-04T09:22:32.626Z,3.55
2023-03-04T09:24:59.743Z,3.80
2023-03-04T09:27:27.120Z,3.20
2023-03-04T09:29:54.316Z,3.63
2023-03-04T09:32:21.545Z,2.72
2023-03-04T09:34:50.825Z,2.92
2023-03-04T09:37:18.041Z,3.75
2023-03-04T09:39:45.285Z,2.80
2023-03-04T09:42:18.695Z,2.97
2023-03-04T09:47:15.144Z,2.42
2023-03-04T09:49:44.568Z,2.78
2023-03-04T09:52:30.697Z,2.50
2023-03-04T09:55:15.600Z,3.03
2023-03-04T09:57:45.870Z,2.78
2023-03-04T10:00:31.576Z,3.05
2023-03-04T10:03:11.379Z,2.60
2023-03-04T10:05:49.631Z,2.83
2023-03-04T10:08:29.934Z,3.17
2023-03-04T10:10:59.338Z,2.13
2023-03-04T10:13:48.059Z,2.65
2023-03-04T10:16:17.518Z,2.30
2023-03-04T10:18:50.670Z,2.20
2023-03-04T10:21:22.953Z,2.63
2023-03-04T10:23:51.030Z,2.50
2023-03-04T10:26:20.901Z,3.00
2023-03-04T10:28:48.550Z,7.93
2023-03-04T10:31:30.063Z,4.00
2023-03-04T10:33:57.215Z,2.00
2023-03-04T10:36:30.512Z,1.67
2023-03-04T10:39:02.905Z,2.00
2023-03-04T10:41:31.607Z,1.63
2023-03-04T10:44:01.899Z,2.35
2023-03-04T10:46:29.357Z,1.40
2023-03-04T10:48:56.497Z,1.50
2023-03-04T10:51:25.009Z,1.60
2023-03-04T10:54:17.752Z,1.80
2023-03-04T10:56:53.844Z,1.90
2023-03-04T10:59:40.172Z,1.58
2023-03-04T11:02:27.230Z,1.80
2023-03-04T11:04:55.785Z,2.03
2023-03-04T11:07:24.418Z,1.30
2023-03-04T11:09:51.678Z,1.77
2023-03-04T11:12:20.882Z,1.60
2023-03-04T11:14:52.352Z,1.17
2023-03-04T11:17:27.149Z,2.30
2023-03-04T11:20:02.539Z,1.38
2023-03-04T11:22:30.974Z,1.35
2023-03-04T11:25:01.147Z,1.50
2023-03-04T11:27:34.965Z,1.70
2023-03-04T11:30:17.427Z,7.30
2023-03-04T11:32:46.448Z,3.40
2023-03-04T11:35:23.910Z,5.43
2023-03-04T11:38:07.069Z,1.58
2023-03-04T11:40:43.853Z,1.80
2023-03-04T11:43:29.873Z,4.20
2023-03-04T11:46:00.116Z,0.95
2023-03-04T11:48:33.484Z,1.23
2023-03-04T11:51:19.399Z,1.15
2023-03-04T11:54:09.098Z,1.17
2023-03-04T11:56:36.308Z,1.02
2023-03-04T11:59:09.612Z,1.42
2023-03-04T12:01:48.936Z,1.55
2023-03-04T12:04:31.262Z,1.05
2023-03-04T12:07:10.047Z,1.10
2023-03-04T12:09:46.439Z,0.77
2023-03-04T12:12:17.189Z,0.93
2023-03-04T12:15:03.284Z,0.73
2023-03-04T12:17:33.465Z,0.60
2023-03-04T12:20:07.976Z,0.60
2023-03-04T12:22:56.872Z,0.93
2023-03-04T12:25:50.446Z,0.60
2023-03-04T12:28:36.328Z,0.88
2023-03-04T12:31:06.581Z,0.68
2023-03-04T12:33:45.537Z,0.60
2023-03-04T12:36:26.843Z,1.10
2023-03-04T12:38:54.292Z,1.02
2023-03-04T12:41:33.715Z,0.93
2023-03-04T12:44:20.590Z,0.85
2023-03-04T12:46:53.893Z,0.77
2023-03-04T12:49:21.001Z,1.00
2023-03-04T12:52:00.102Z,1.13
2023-03-04T12:54:48.722Z,0.88
2023-03-04T12:57:21.047Z,2.10
2023-03-04T13:00:06.753Z,0.90
2023-03-04T13:02:41.042Z,0.60
2023-03-04T13:05:25.506Z,0.80
2023-03-04T13:08:11.548Z,1.00
2023-03-04T13:10:38.882Z,0.90
2023-03-04T13:13:06.242Z,0.70
2023-03-04T13:15:33.407Z,0.98
2023-03-04T13:18:19.362Z,1.00
2023-03-04T13:20:46.583Z,0.80
2023-03-04T13:23:28.783Z,1.00
2023-03-04T13:25:55.928Z,0.82
2023-03-04T13:28:24.527Z,0.90
2023-03-04T13:30:59.502Z,1.90
2023-03-04T13:33:26.744Z,1.10
2023-03-04T13:36:04.116Z,0.90
2023-03-04T13:38:31.362Z,0.70
2023-03-04T13:41:15.247Z,0.95
2023-03-04T13:46:23.854Z,0.70
2023-03-04T13:48:51.761Z,0.80
2023-03-04T13:51:37.784Z,0.75
2023-03-04T13:54:20.237Z,0.85
2023-03-04T13:56:48.363Z,1.30
2023-03-04T13:59:27.739Z,0.90
2023-03-04T14:02:03.976Z,1.00
2023-03-04T14:04:34.452Z,1.00
2023-03-04T14:07:03.063Z,1.10
2023-03-04T14:09:34.953Z,0.80
2023-03-04T14:12:04.051Z,1.00
2023-03-04T14:14:37.561Z,1.00
2023-03-04T14:17:06.219Z,1.10
2023-03-04T14:19:36.073Z,1.10
2023-03-04T14:22:03.318Z,0.90
2023-03-04T14:24:31.095Z,1.20
2023-03-04T14:27:08.078Z,0.90
2023-03-04T14:29:35.248Z,0.98
2023-03-04T14:32:03.186Z,0.80
2023-03-04T14:34:37.976Z,0.95
2023-03-04T14:37:17.387Z,1.35
2023-03-04T14:39:44.655Z,0.90
2023-03-04T14:42:13.652Z,0.90
2023-03-04T14:44:47.716Z,0.70
2023-03-04T14:47:17.287Z,1.20
2023-03-04T14:49:44.775Z,1.00
2023-03-04T14:52:27.908Z,1.17
2023-03-04T14:55:22.281Z,1.25
2023-03-04T14:57:51.795Z,1.17
2023-03-04T15:00:21.769Z,1.10
2023-03-04T15:02:53.216Z,1.10
2023-03-04T15:05:28.816Z,1.00
2023-03-04T15:07:57.701Z,0.90
2023-03-04T15:10:30.136Z,1.10
2023-03-04T15:13:01.471Z,0.90
2023-03-04T15:15:45.507Z,1.25
2023-03-04T15:18:26.724Z,1.10
2023-03-04T15:21:03.602Z,0.77
2023-03-04T15:23:31.903Z,0.90
2023-03-04T15:26:01.815Z,1.13
2023-03-04T15:28:36.255Z,0.80
2023-03-04T15:31:03.869Z,1.75
2023-03-04T15:33:31.348Z,0.95
2023-03-04T15:36:02.719Z,2.00
2023-03-04T15:38:30.505Z,0.90
2023-03-04T15:41:01.231Z,1.20
2023-03-04T15:43:28.493Z,0.90
2023-03-04T15:45:55.841Z,1.25
2023-03-04T15:48:23.047Z,0.88
2023-03-04T15:50:52.324Z,0.82
2023-03-04T15:53:25.629Z,0.70
2023-03-04T15:55:52.894Z,1.00
2023-03-04T15:58:20.437Z,1.00
2023-03-04T16:00:47.595Z,0.88
2023-03-04T16:03:18.708Z,0.85
2023-03-04T16:05:46.825Z,0.80
2023-03-04T16:08:14.666Z,0.75
2023-03-04T16:10:43.896Z,0.70
2023-03-04T16:13:21.844Z,0.80
2023-03-04T16:15:49.378Z,0.77
2023-03-04T16:18:16.970Z,0.70
2023-03-04T16:20:46.352Z,0.85
2023-03-04T16:23:14.948Z,0.50
2023-03-04T16:25:46.062Z,0.60
2023-03-04T16:28:13.795Z,0.82
2023-03-04T16:30:41.649Z,0.88
2023-03-04T16:33:11.361Z,0.70
2023-03-04T16:35:39.574Z,0.90
2023-03-04T16:38:12.870Z,1.23
2023-03-04T16:40:39.999Z,0.73
2023-03-04T16:43:07.840Z,1.00
2023-03-04T16:45:37.059Z,0.90
2023-03-04T16:48:04.474Z,1.50
2023-03-04T16:50:31.733Z,3.00
2023-03-04T16:52:59.004Z,1.42
2023-03-04T16:55:31.321Z,0.80
2023-03-04T16:57:59.018Z,0.98
2023-03-04T17:00:27.909Z,1.27
2023-03-04T17:02:57.805Z,1.08
2023-03-04T17:05:25.953Z,3.33
2023-03-04T17:07:53.157Z,4.15
2023-03-04T17:10:20.542Z,8.77
2023-03-04T17:12:47.896Z,4.20
2023-03-04T17:15:15.354Z,2.80
2023-03-04T17:17:42.882Z,3.10
2023-03-04T17:20:11.956Z,3.30
2023-03-04T17:22:39.222Z,1.88
2023-03-04T17:25:06.718Z,2.13
2023-03-04T17:27:34.944Z,3.42
2023-03-04T17:30:02.218Z,1.20
2023-03-04T17:32:32.623Z,1.30
2023-03-04T17:35:00.531Z,39.13
2023-03-04T17:37:28.131Z,10.80
2023-03-04T17:39:55.518Z,8.68
2023-03-04T17:42:22.661Z,12.05
2023-03-04T17:44:49.847Z,3.42
2023-03-04T17:47:17.304Z,2.67
2023-03-04T17:49:44.709Z,1.85
2023-03-04T17:52:12.108Z,1.80
2023-03-04T17:54:39.314Z,2.10
2023-03-04T17:57:06.570Z,2.58
2023-03-04T17:59:33.776Z,2.05
2023-03-04T18:02:00.951Z,2.92
2023-03-04T18:04:28.112Z,2.30
2023-03-04T18:06:55.304Z,2.42
2023-03-04T18:09:22.445Z,2.67
2023-03-04T18:11:49.600Z,1.98
2023-03-04T18:14:16.830Z,2.22
2023-03-04T18:16:44.126Z,2.47
2023-03-04T18:19:11.396Z,1.67
2023-03-04T18:21:38.654Z,2.33
2023-03-04T18:24:06.143Z,2.60
2023-03-04T18:26:33.384Z,2.42
2023-03-04T18:29:00.574Z,2.63
2023-03-04T18:31:31.612Z,2.00
2023-03-04T18:33:59.805Z,1.58
2023-03-04T18:36:27.296Z,2.25
2023-03-04T18:38:55.057Z,2.35
2023-03-04T18:41:22.189Z,1.77
2023-03-04T18:43:49.411Z,2.03
2023-03-04T18:46:30.329Z,2.50
2023-03-04T18:49:00.903Z,2.38
2023-03-04T18:51:28.217Z,2.22
2023-03-04T18:53:55.541Z,2.40
2023-03-04T18:56:28.243Z,2.28
2023-03-04T18:58:55.810Z,2.17
2023-03-04T19:01:25.101Z,2.30
2023-03-04T19:03:54.359Z,2.00
2023-03-04T19:06:23.590Z,2.15
2023-03-04T19:08:55.204Z,2.75
2023-03-04T19:11:26.809Z,3.33
2023-03-04T19:13:54.102Z,4.80
2023-03-04T19:16:21.392Z,3.67
2023-03-04T19:18:48.537Z,2.88
2023-03-04T19:21:15.642Z,2.90
2023-03-04T19:23:42.793Z,2.65
2023-03-04T19:26:10.109Z,2.50
2023-03-04T19:28:37.280Z,2.30
2023-03-04T19:31:08.626Z,2.47
2023-03-04T19:33:36.934Z,2.90
2023-03-04T19:36:05.186Z,2.88
2023-03-04T19:38:32.778Z,3.15
2023-03-04T19:41:00.408Z,3.65
2023-03-04T19:43:27.620Z,5.25
2023-03-04T19:45:57.903Z,3.40
2023-03-04T19:48:25.186Z,3.50
2023-03-04T19:50:52.332Z,10.23
2023-03-04T19:53:19.718Z,9.25
2023-03-04T19:55:49.330Z,7.15
2023-03-04T19:58:16.737Z,5.13
2023-03-04T20:00:44.307Z,4.22
2023-03-04T20:03:12.012Z,6.05
2023-03-04T20:05:39.190Z,4.50
2023-03-04T20:08:06.783Z,6.40
2023-03-04T20:10:36.688Z,6.43
2023-03-04T20:13:07.613Z,4.53
2023-03-04T20:15:35.120Z,6.88
2023-03-04T20:18:02.547Z,6.47
2023-03-04T20:20:30.264Z,5.38
2023-03-04T20:22:57.429Z,5.78
2023-03-04T20:25:24.897Z,6.43
2023-03-04T20:27:52.256Z,9.60
2023-03-04T20:30:19.551Z,5.82
2023-03-04T20:32:46.748Z,7.90
2023-03-04T20:35:15.230Z,9.82
2023-03-04T20:37:42.906Z,8.00
2023-03-04T20:40:11.097Z,5.55
2023-03-04T20:42:38.299Z,5.45
2023-03-04T20:45:06.096Z,4.78
2023-03-04T20:47:33.579Z,5.53
2023-03-04T20:50:00.738Z,5.18
2023-03-04T20:52:27.893Z,4.20
2023-03-04T20:54:55.124Z,5.15
2023-03-04T20:57:22.390Z,4.97
2023-03-04T20:59:49.668Z,4.65
2023-03-04T21:02:17.776Z,4.35
2023-03-04T21:04:45.149Z,4.97
2023-03-04T21:07:12.801Z,12.13
2023-03-04T21:09:40.011Z,6.10
2023-03-04T21:12:07.824Z,6.63
2023-03-04T21:14:35.113Z,7.15
2023-03-04T21:17:03.428Z,6.40
2023-03-04T21:19:32.163Z,3.85
2023-03-04T21:22:00.156Z,6.05
2023-03-04T21:24:28.877Z,5.70
2023-03-04T21:26:56.140Z,5.55
2023-03-04T21:29:24.355Z,6.22
2023-03-04T21:31:55.967Z,3.60
2023-03-04T21:34:24.385Z,3.55
2023-03-04T21:36:51.871Z,2.70
2023-03-04T21:39:21.492Z,2.00
2023-03-04T21:41:48.707Z,2.38
2023-03-04T21:44:28.047Z,2.42
2023-03-04T21:46:56.706Z,2.58
2023-03-04T21:49:24.064Z,1.80
2023-03-04T21:51:51.299Z,1.63
2023-03-04T21:54:18.992Z,2.05
2023-03-04T21:56:46.241Z,2.45
2023-03-04T21:59:14.774Z,1.85
2023-03-04T22:01:42.632Z,2.38
2023-03-04T22:04:10.139Z,2.08
2023-03-04T22:06:38.845Z,1.92
2023-03-04T22:09:07.538Z,1.73
2023-03-04T22:11:34.834Z,1.80
2023-03-04T22:14:02.860Z,1.83
2023-03-04T22:16:30.542Z,1.95
2023-03-04T22:18:58.160Z,2.30
2023-03-04T22:21:25.547Z,2.15
2023-03-04T22:23:52.920Z,2.22
2023-03-04T22:26:22.313Z,2.17
2023-03-04T22:28:49.502Z,2.08
2023-03-04T22:31:21.028Z,1.90
2023-03-04T22:33:48.239Z,2.45
2023-03-04T22:36:15.416Z,2.03
2023-03-04T22:38:44.522Z,2.30
2023-03-04T22:41:18.686Z,2.10
2023-03-04T22:43:45.960Z,2.25
2023-03-04T22:46:17.122Z,2.17
2023-03-04T22:48:44.298Z,2.25
2023-03-04T22:51:11.926Z,2.60
2023-03-04T22:53:39.598Z,3.60
2023-03-04T22:56:08.413Z,2.72
2023-03-04T22:58:35.715Z,2.88
2023-03-04T23:01:03.850Z,5.00
2023-03-04T23:03:31.163Z,2.58
2023-03-04T23:06:02.198Z,2.58
2023-03-04T23:08:29.508Z,2.08
2023-03-04T23:10:56.899Z,2.05
2023-03-04T23:13:24.119Z,2.20
2023-03-04T23:15:51.490Z,2.50
2023-03-04T23:18:18.998Z,2.63
2023-03-04T23:20:46.124Z,2.65
2023-03-04T23:23:13.245Z,2.85
2023-03-04T23:25:40.448Z,2.55
2023-03-04T23:28:07.689Z,2.38
2023-03-04T23:30:35.448Z,2.00
2023-03-04T23:33:02.722Z,1.85
2023-03-04T23:35:30.057Z,1.75
2023-03-04T23:37:57.224Z,2.20
2023-03-04T23:40:24.413Z,2.28
2023-03-04T23:42:51.569Z,1.70
2023-03-04T23:45:18.775Z,1.77
2023-03-04T23:47:46.082Z,2.28
2023-03-04T23:50:16.031Z,2.08
2023-03-04T23:52:44.187Z,1.88
2023-03-04T23:55:15.452Z,2.05
2023-03-04T23:57:42.763Z,2.05
